createdAt,value
2023-05-18T00:01:57.840Z,10.60
2023-05-18T00:04:33.367Z,10.40
2023-05-18T00:07:07.271Z,10.30
2023-05-18T00:09:41.404Z,10.20
2023-05-18T00:12:14.888Z,10.10
2023-05-18T00:14:48.012Z,10.10
2023-05-18T00:17:21.801Z,9.90
2023-05-18T00:19:54.582Z,9.90
2023-05-18T00:22:28.025Z,9.80
2023-05-18T00:25:01.152Z,9.70
2023-05-18T00:27:34.340Z,9.70
2023-05-18T00:30:07.916Z,9.60
2023-05-18T00:32:42.269Z,9.60
2023-05-18T00:35:15.329Z,9.60
2023-05-18T00:37:48.233Z,9.60
2023-05-18T00:40:22.721Z,9.60
2023-05-18T00:42:57.531Z,9.60
2023-05-18T00:45:31.122Z,9.60
2023-05-18T00:48:04.631Z,9.60
2023-05-18T00:50:38.482Z,9.60
2023-05-18T00:53:11.453Z,9.50
2023-05-18T00:55:44.253Z,9.40
2023-05-18T00:58:17.427Z,9.40
2023-05-18T01:00:50.622Z,9.40
2023-05-18T01:03:24.775Z,9.40
2023-05-18T01:05:58.464Z,9.40
2023-05-18T01:08:33.932Z,9.40
2023-05-18T01:11:13.081Z,9.40
2023-05-18T01:13:59.096Z,9.30
2023-05-18T01:16:37.812Z,9.30
2023-05-18T01:19:21.837Z,9.30
2023-05-18T01:22:22.171Z,9.30
2023-05-18T01:25:15.074Z,9.30
2023-05-18T01:27:51.044Z,9.30
2023-05-18T01:30:24.351Z,9.20
2023-05-18T01:32:57.184Z,9.20
2023-05-18T01:35:30.479Z,9.20
2023-05-18T01:38:05.023Z,9.10
2023-05-18T01:40:52.037Z,9.10
2023-05-18T01:43:31.900Z,9.10
2023-05-18T01:46:16.204Z,9.00
2023-05-18T01:48:55.746Z,9.00
2023-05-18T01:51:33.752Z,8.90
2023-05-18T01:54:11.077Z,8.90
2023-05-18T01:56:45.368Z,8.90
2023-05-18T01:59:19.045Z,8.90
2023-05-18T02:01:52.048Z,8.90
2023-05-18T02:04:32.519Z,8.80
2023-05-18T02:07:06.291Z,8.90
2023-05-18T02:09:39.382Z,8.90
2023-05-18T02:12:12.406Z,8.90
2023-05-18T02:14:45.445Z,9.00
2023-05-18T02:17:18.273Z,9.00
2023-05-18T02:19:51.056Z,9.00
2023-05-18T02:22:23.901Z,8.90
2023-05-18T02:24:57.784Z,9.00
2023-05-18T02:27:31.668Z,9.00
2023-05-18T02:30:06.641Z,9.00
2023-05-18T02:32:39.442Z,9.10
2023-05-18T02:35:13.224Z,9.00
2023-05-18T02:37:47.500Z,9.00
2023-05-18T02:40:20.748Z,9.00
2023-05-18T02:42:53.796Z,8.90
2023-05-18T02:45:26.600Z,8.80
2023-05-18T02:48:00.751Z,8.80
2023-05-18T02:50:33.781Z,8.70
2023-05-18T02:53:06.933Z,8.60
2023-05-18T02:55:41.080Z,8.50
2023-05-18T02:58:20.403Z,8.50
2023-05-18T03:01:07.913Z,8.40
2023-05-18T03:03:47.276Z,8.40
2023-05-18T03:06:23.376Z,8.40
2023-05-18T03:08:56.862Z,8.30
2023-05-18T03:11:41.350Z,8.20
2023-05-18T03:14:16.295Z,8.10
2023-05-18T03:16:54.280Z,8.10
2023-05-18T03:19:29.292Z,7.90
2023-05-18T03:22:02.179Z,7.80
2023-05-18T03:24:40.183Z,7.80
2023-05-18T03:27:18.658Z,7.60
2023-05-18T03:29:56.721Z,7.60
2023-05-18T03:32:32.146Z,7.60
2023-05-18T03:35:05.707Z,7.50
2023-05-18T03:37:38.944Z,7.50
2023-05-18T03:40:15.671Z,7.50
2023-05-18T03:42:50.196Z,7.40
2023-05-18T03:45:23.572Z,7.40
2023-05-18T03:47:57.102Z,7.40
2023-05-18T03:50:31.352Z,7.40
2023-05-18T03:53:07.730Z,7.40
2023-05-18T03:55:42.061Z,7.40
2023-05-18T03:58:16.314Z,7.40
2023-05-18T04:00:49.667Z,7.40
2023-05-18T04:03:25.216Z,7.40
2023-05-18T04:05:58.405Z,7.30
2023-05-18T04:08:34.428Z,7.30
2023-05-18T04:11:07.428Z,7.20
2023-05-18T04:13:41.907Z,7.20
2023-05-18T04:16:14.744Z,7.20
2023-05-18T04:18:47.926Z,7.20
2023-05-18T04:21:20.899Z,7.10
2023-05-18T04:23:53.739Z,7.10
2023-05-18T04:26:26.743Z,7.10
2023-05-18T04:29:00.420Z,7.00
2023-05-18T04:31:34.882Z,6.90
2023-05-18T04:34:09.402Z,6.90
2023-05-18T04:36:42.873Z,6.90
2023-05-18T04:39:16.065Z,7.00
2023-05-18T04:41:49.925Z,7.00
2023-05-18T04:44:23.024Z,7.00
2023-05-18T04:46:57.070Z,7.00
2023-05-18T04:49:32.017Z,7.10
2023-05-18T04:52:06.766Z,7.00
2023-05-18T04:54:41.405Z,7.10
2023-05-18T04:57:14.633Z,7.20
2023-05-18T04:59:48.185Z,7.20
2023-05-18T05:02:21.416Z,7.30
2023-05-18T05:04:54.500Z,7.30
2023-05-18T05:07:27.292Z,7.40
2023-05-18T05:10:00.318Z,7.50
2023-05-18T05:12:33.330Z,7.50
2023-05-18T05:15:07.257Z,7.60
2023-05-18T05:17:40.536Z,7.70
2023-05-18T05:20:14.911Z,7.80
2023-05-18T05:22:48.335Z,7.90
2023-05-18T05:25:24.275Z,8.00
2023-05-18T05:27:57.251Z,8.20
2023-05-18T05:30:30.801Z,8.30
2023-05-18T05:33:03.743Z,8.60
2023-05-18T05:35:37.171Z,8.70
2023-05-18T05:38:10.317Z,8.90
2023-05-18T05:40:43.307Z,9.10
2023-05-18T05:43:16.514Z,9.30
2023-05-18T05:45:51.435Z,9.50
2023-05-18T05:48:24.524Z,9.80
2023-05-18T05:50:57.824Z,10.00
2023-05-18T05:53:30.835Z,10.30
2023-05-18T05:56:04.230Z,10.50
2023-05-18T05:58:39.162Z,10.70
2023-05-18T06:01:12.128Z,10.70
2023-05-18T06:03:45.330Z,10.80
2023-05-18T06:06:19.210Z,10.90
2023-05-18T06:08:52.147Z,11.00
2023-05-18T06:11:25.313Z,10.90
2023-05-18T06:13:58.915Z,10.90
2023-05-18T06:16:31.928Z,10.90
2023-05-18T06:19:06.225Z,10.90
2023-05-18T06:21:39.700Z,11.10
2023-05-18T06:24:13.767Z,11.20
2023-05-18T06:27:09.475Z,11.40
2023-05-18T06:29:52.987Z,11.60
2023-05-18T06:32:55.163Z,11.60
2023-05-18T06:35:28.160Z,11.70
2023-05-18T06:38:01.045Z,11.90
2023-05-18T06:40:34.012Z,11.50
2023-05-18T06:43:07.010Z,11.50
2023-05-18T06:46:09.108Z,11.50
2023-05-18T06:48:47.132Z,11.70
2023-05-18T06:51:20.276Z,12.00
2023-05-18T06:53:53.860Z,12.40
2023-05-18T06:56:28.182Z,12.70
2023-05-18T06:59:03.120Z,12.90
2023-05-18T07:01:36.197Z,13.00
2023-05-18T07:04:10.616Z,13.10
2023-05-18T07:06:44.061Z,13.10
2023-05-18T07:09:17.591Z,13.20
2023-05-18T07:11:51.346Z,13.20
2023-05-18T07:14:24.114Z,13.20
2023-05-18T07:16:58.412Z,13.30
2023-05-18T07:19:32.692Z,13.50
2023-05-18T07:22:07.802Z,13.80
2023-05-18T07:24:40.652Z,14.00
2023-05-18T07:27:14.822Z,14.20
2023-05-18T07:29:47.879Z,14.40
2023-05-18T07:32:20.842Z,14.50
2023-05-18T07:34:54.116Z,14.50
2023-05-18T07:37:29.345Z,14.70
2023-05-18T07:40:02.422Z,14.80
2023-05-18T07:42:35.544Z,15.20
2023-05-18T07:45:09.435Z,15.20
2023-05-18T07:47:42.600Z,15.20
2023-05-18T07:50:17.872Z,15.00
2023-05-18T07:52:51.642Z,15.00
2023-05-18T07:55:24.638Z,14.90
2023-05-18T07:58:00.587Z,15.10
2023-05-18T08:00:34.485Z,15.10
2023-05-18T08:03:08.685Z,15.10
2023-05-18T08:05:41.992Z,15.10
2023-05-18T08:08:16.167Z,15.20
2023-05-18T08:10:50.786Z,15.40
2023-05-18T08:13:23.541Z,15.40
2023-05-18T08:16:11.208Z,15.50
2023-05-18T08:18:44.814Z,15.50
2023-05-18T08:21:20.159Z,15.60
2023-05-18T08:23:53.119Z,15.70
2023-05-18T08:26:27.062Z,15.60
2023-05-18T08:29:00.109Z,15.80
2023-05-18T08:31:33.223Z,15.80
2023-05-18T08:34:07.442Z,15.80
2023-05-18T08:36:41.183Z,15.70
2023-05-18T08:39:14.152Z,15.70
2023-05-18T08:42:02.306Z,15.80
2023-05-18T08:44:46.170Z,15.90
2023-05-18T08:47:25.847Z,15.80
2023-05-18T08:50:04.742Z,15.70
2023-05-18T08:52:45.532Z,15.80
2023-05-18T08:55:19.615Z,16.00
2023-05-18T08:57:59.872Z,16.20
2023-05-18T09:00:34.664Z,16.40
2023-05-18T09:03:09.390Z,16.20
2023-05-18T09:05:42.568Z,16.00
2023-05-18T09:08:16.495Z,15.90
2023-05-18T09:10:56.690Z,15.90
2023-05-18T09:13:31.529Z,15.80
2023-05-18T09:16:05.174Z,15.80
2023-05-18T09:18:38.220Z,15.80
2023-05-18T09:21:12.219Z,15.60
2023-05-18T09:23:45.889Z,15.60
2023-05-18T09:26:21.200Z,15.30
2023-05-18T09:28:54.945Z,15.40
2023-05-18T09:31:30.754Z,15.70
2023-05-18T09:34:06.489Z,16.00
2023-05-18T09:36:39.897Z,15.90
2023-05-18T09:39:12.916Z,15.90
2023-05-18T09:41:45.995Z,15.90
2023-05-18T09:44:28.318Z,16.10
2023-05-18T09:47:02.213Z,16.40
2023-05-18T09:49:35.249Z,16.60
2023-05-18T09:52:09.154Z,16.50
2023-05-18T09:54:42.301Z,16.60
2023-05-18T09:57:20.296Z,16.90
2023-05-18T10:00:07.942Z,17.10
2023-05-18T10:02:43.706Z,17.30
2023-05-18T10:05:21.013Z,17.50
2023-05-18T10:07:55.288Z,17.60
2023-05-18T10:10:31.888Z,17.70
2023-05-18T10:13:05.058Z,17.50
2023-05-18T10:15:38.210Z,17.40
2023-05-18T10:18:11.217Z,17.50
2023-05-18T10:20:44.721Z,17.40
2023-05-18T10:23:21.834Z,17.60
2023-05-18T10:25:54.973Z,17.70
2023-05-18T10:28:32.988Z,17.90
2023-05-18T10:31:08.251Z,17.90
2023-05-18T10:33:42.047Z,18.00
2023-05-18T10:36:17.542Z,18.30
2023-05-18T10:38:52.106Z,18.30
2023-05-18T10:41:27.450Z,18.30
2023-05-18T10:44:03.927Z,18.60
2023-05-18T10:46:38.626Z,18.50
2023-05-18T10:49:14.859Z,18.60
2023-05-18T10:51:49.786Z,18.60
2023-05-18T10:54:25.441Z,18.40
2023-05-18T10:57:02.483Z,18.30
2023-05-18T10:59:41.890Z,18.30
2023-05-18T11:02:18.485Z,18.50
2023-05-18T11:04:54.569Z,18.70
2023-05-18T11:07:30.592Z,18.60
2023-05-18T11:10:09.340Z,18.60
2023-05-18T11:12:43.582Z,19.00
2023-05-18T11:15:19.977Z,19.20
2023-05-18T11:18:13.488Z,19.10
2023-05-18T11:20:48.003Z,18.80
2023-05-18T11:23:24.286Z,18.60
2023-05-18T11:26:05.221Z,18.50
2023-05-18T11:28:43.961Z,18.60
2023-05-18T11:31:18.652Z,18.90
2023-05-18T11:33:51.653Z,19.10
2023-05-18T11:36:26.068Z,19.20
2023-05-18T11:39:11.435Z,19.10
2023-05-18T11:41:45.077Z,19.00
2023-05-18T11:44:21.595Z,19.00
2023-05-18T11:47:11.152Z,18.80
2023-05-18T11:49:46.839Z,19.00
2023-05-18T11:52:24.709Z,18.90
2023-05-18T11:54:59.374Z,19.00
2023-05-18T11:57:35.317Z,18.40
2023-05-18T12:00:11.969Z,18.20
2023-05-18T12:02:48.680Z,18.00
2023-05-18T12:05:21.704Z,18.00
2023-05-18T12:07:54.952Z,18.10
2023-05-18T12:10:29.474Z,18.30
2023-05-18T12:13:05.410Z,18.60
2023-05-18T12:15:38.880Z,18.90
2023-05-18T12:18:12.332Z,18.80
2023-05-18T12:20:46.833Z,18.80
2023-05-18T12:23:22.019Z,18.40
2023-05-18T12:25:55.962Z,18.30
2023-05-18T12:28:29.161Z,18.00
2023-05-18T12:31:07.544Z,18.00
2023-05-18T12:33:42.555Z,18.00
2023-05-18T12:36:15.730Z,18.00
2023-05-18T12:38:50.156Z,18.00
2023-05-18T12:41:26.809Z,18.10
2023-05-18T12:43:59.995Z,18.00
2023-05-18T12:46:33.203Z,17.80
2023-05-18T12:49:06.431Z,17.80
2023-05-18T12:51:39.841Z,17.80
2023-05-18T12:54:13.096Z,17.90
2023-05-18T12:57:01.496Z,18.00
2023-05-18T12:59:35.379Z,18.00
2023-05-18T13:02:08.427Z,17.90
2023-05-18T13:04:41.966Z,18.00
2023-05-18T13:07:14.879Z,18.00
2023-05-18T13:09:48.423Z,17.80
2023-05-18T13:12:38.958Z,17.70
2023-05-18T13:15:22.835Z,17.60
2023-05-18T13:18:03.877Z,17.70
2023-05-18T13:20:42.462Z,17.60
2023-05-18T13:23:16.673Z,17.50
2023-05-18T13:25:50.329Z,17.40
2023-05-18T13:28:23.633Z,17.40
2023-05-18T13:30:56.748Z,17.40
2023-05-18T13:33:29.547Z,17.50
2023-05-18T13:36:03.163Z,17.50
2023-05-18T13:38:37.526Z,17.50
2023-05-18T13:41:12.254Z,17.50
2023-05-18T13:43:45.137Z,17.60
2023-05-18T13:46:20.163Z,17.50
2023-05-18T13:48:52.994Z,17.40
2023-05-18T13:51:25.930Z,17.30
2023-05-18T13:53:59.352Z,17.30
2023-05-18T13:56:32.465Z,17.40
2023-05-18T13:59:05.295Z,17.50
2023-05-18T14:01:38.363Z,17.70
2023-05-18T14:04:11.483Z,17.70
2023-05-18T14:06:44.450Z,17.80
2023-05-18T14:09:17.532Z,17.80
2023-05-18T14:11:53.055Z,17.80
2023-05-18T14:14:26.838Z,17.70
2023-05-18T14:16:59.825Z,17.70
2023-05-18T14:19:32.894Z,17.70
2023-05-18T14:22:06.163Z,17.60
2023-05-18T14:24:39.064Z,17.60
2023-05-18T14:27:12.062Z,17.60
2023-05-18T14:29:45.061Z,17.60
2023-05-18T14:32:18.307Z,17.50
2023-05-18T14:34:52.286Z,17.50
2023-05-18T14:37:25.572Z,17.50
2023-05-18T14:39:58.493Z,17.50
2023-05-18T14:42:31.534Z,17.50
2023-05-18T14:45:05.141Z,17.50
2023-05-18T14:47:38.159Z,17.60
2023-05-18T14:50:11.198Z,17.60
2023-05-18T14:52:44.209Z,17.60
2023-05-18T14:55:17.368Z,17.50
2023-05-18T14:57:51.546Z,17.50
2023-05-18T15:00:24.548Z,17.50
2023-05-18T15:02:57.524Z,17.40
2023-05-18T15:05:30.839Z,17.30
2023-05-18T15:08:03.797Z,17.30
2023-05-18T15:10:36.604Z,17.30
2023-05-18T15:13:10.088Z,17.30
2023-05-18T15:15:44.258Z,17.30
2023-05-18T15:18:17.779Z,17.30
2023-05-18T15:20:51.277Z,17.30
2023-05-18T15:23:26.422Z,17.40
2023-05-18T15:25:59.854Z,17.40
2023-05-18T15:28:33.038Z,17.50
2023-05-18T15:31:06.427Z,17.50
2023-05-18T15:33:42.650Z,17.50
2023-05-18T15:36:16.164Z,17.50
2023-05-18T15:38:49.058Z,17.50
2023-05-18T15:41:22.241Z,17.50
2023-05-18T15:43:55.153Z,17.50
2023-05-18T15:46:34.750Z,17.50
2023-05-18T15:49:07.762Z,17.50
2023-05-18T15:51:40.898Z,17.60
2023-05-18T15:54:14.168Z,17.60
2023-05-18T15:56:47.029Z,17.60
2023-05-18T15:59:20.670Z,17.60
2023-05-18T16:01:54.443Z,17.60
2023-05-18T16:04:28.369Z,17.70
2023-05-18T16:07:03.983Z,17.60
2023-05-18T16:09:36.781Z,17.60
2023-05-18T16:12:09.831Z,17.50
2023-05-18T16:14:42.927Z,17.50
2023-05-18T16:17:15.923Z,17.40
2023-05-18T16:19:51.305Z,17.30
2023-05-18T16:22:26.441Z,17.30
2023-05-18T16:24:59.443Z,17.30
2023-05-18T16:27:32.269Z,17.30
2023-05-18T16:30:05.758Z,17.30
2023-05-18T16:32:39.028Z,17.30
2023-05-18T16:35:12.092Z,17.30
2023-05-18T16:37:45.003Z,17.30
2023-05-18T16:40:18.047Z,17.30
2023-05-18T16:42:50.824Z,17.30
2023-05-18T16:45:25.228Z,17.30
2023-05-18T16:48:05.734Z,17.40
2023-05-18T16:50:38.926Z,17.40
2023-05-18T16:53:11.762Z,17.40
2023-05-18T16:55:44.786Z,17.30
2023-05-18T16:58:17.781Z,17.30
2023-05-18T17:00:50.706Z,17.20
2023-05-18T17:03:25.112Z,17.20
2023-05-18T17:05:58.039Z,17.20
2023-05-18T17:08:30.819Z,17.10
2023-05-18T17:11:03.891Z,17.10
2023-05-18T17:13:36.934Z,17.10
2023-05-18T17:16:11.525Z,17.10
2023-05-18T17:18:44.407Z,17.10
2023-05-18T17:21:17.800Z,17.10
2023-05-18T17:23:50.674Z,17.10
2023-05-18T17:26:25.472Z,17.00
2023-05-18T17:28:58.415Z,17.00
2023-05-18T17:31:31.612Z,17.00
2023-05-18T17:34:04.445Z,17.00
2023-05-18T17:36:37.451Z,16.90
2023-05-18T17:39:10.410Z,16.90
2023-05-18T17:41:44.532Z,16.80
2023-05-18T17:44:18.169Z,16.80
2023-05-18T17:46:51.782Z,16.80
2023-05-18T17:49:24.708Z,16.80
2023-05-18T17:51:57.696Z,16.80
2023-05-18T17:54:31.044Z,16.70
2023-05-18T17:57:04.219Z,16.70
2023-05-18T17:59:37.424Z,16.70
2023-05-18T18:02:12.227Z,16.70
2023-05-18T18:04:45.248Z,16.70
2023-05-18T18:07:18.856Z,16.60
2023-05-18T18:09:51.794Z,16.60
2023-05-18T18:12:24.790Z,16.60
2023-05-18T18:14:57.591Z,16.60
2023-05-18T18:17:30.516Z,16.50
2023-05-18T18:20:05.628Z,16.50
2023-05-18T18:22:38.632Z,16.40
2023-05-18T18:25:11.464Z,16.40
2023-05-18T18:27:44.624Z,16.40
2023-05-18T18:30:17.419Z,16.30
2023-05-18T18:32:51.362Z,16.30
2023-05-18T18:35:24.203Z,16.30
2023-05-18T18:37:57.712Z,16.30
2023-05-18T18:40:30.926Z,16.20
2023-05-18T18:43:04.185Z,16.20
2023-05-18T18:45:38.538Z,16.10
2023-05-18T18:48:11.424Z,16.00
2023-05-18T18:50:44.229Z,16.00
2023-05-18T18:53:17.873Z,16.00
2023-05-18T18:55:50.690Z,16.00
2023-05-18T18:58:24.388Z,15.90
2023-05-18T19:00:57.549Z,15.90
2023-05-18T19:03:33.121Z,15.80
2023-05-18T19:06:06.255Z,15.80
2023-05-18T19:08:39.462Z,15.70
2023-05-18T19:11:12.271Z,15.70
2023-05-18T19:13:45.268Z,15.60
2023-05-18T19:16:18.349Z,15.50
2023-05-18T19:18:51.588Z,15.50
2023-05-18T19:21:26.235Z,15.40
2023-05-18T19:23:59.476Z,15.30
2023-05-18T19:26:32.575Z,15.30
2023-05-18T19:29:08.776Z,15.20
2023-05-18T19:31:41.738Z,15.20
2023-05-18T19:34:14.761Z,15.10
2023-05-18T19:36:48.670Z,15.10
2023-05-18T19:39:21.660Z,15.10
2023-05-18T19:41:54.455Z,15.00
2023-05-18T19:44:28.220Z,15.00
2023-05-18T19:47:01.430Z,15.00
2023-05-18T19:49:34.278Z,14.90
2023-05-18T19:52:09.384Z,14.90
2023-05-18T19:54:42.251Z,14.90
2023-05-18T19:57:15.232Z,14.80
2023-05-18T19:59:48.419Z,14.80
2023-05-18T20:02:21.291Z,14.70
2023-05-18T20:04:54.238Z,14.70
2023-05-18T20:07:28.068Z,14.60
2023-05-18T20:10:01.061Z,14.50
2023-05-18T20:12:34.243Z,14.50
2023-05-18T20:15:07.751Z,14.50
2023-05-18T20:17:41.187Z,14.40
2023-05-18T20:20:14.179Z,14.40
2023-05-18T20:22:47.189Z,14.40
2023-05-18T20:25:20.721Z,14.40
2023-05-18T20:27:56.690Z,14.40
2023-05-18T20:30:30.699Z,14.40
2023-05-18T20:33:04.973Z,14.40
2023-05-18T20:35:37.954Z,14.50
2023-05-18T20:38:12.713Z,14.40
2023-05-18T20:40:46.638Z,14.40
2023-05-18T20:43:19.519Z,14.40
2023-05-18T20:45:53.139Z,14.40
2023-05-18T20:48:26.777Z,14.40
2023-05-18T20:50:59.809Z,14.30
2023-05-18T20:53:33.072Z,14.40
2023-05-18T20:56:07.083Z,14.30
2023-05-18T20:58:42.787Z,14.20
2023-05-18T21:01:16.831Z,14.20
2023-05-18T21:03:49.845Z,14.20
2023-05-18T21:06:24.042Z,14.10
2023-05-18T21:08:56.925Z,14.10
2023-05-18T21:11:31.192Z,14.00
2023-05-18T21:14:03.978Z,14.00
2023-05-18T21:16:37.043Z,14.00
2023-05-18T21:19:10.001Z,13.90
2023-05-18T21:21:43.215Z,13.90
2023-05-18T21:24:16.532Z,13.90
2023-05-18T21:26:49.712Z,13.80
2023-05-18T21:29:23.326Z,13.90
2023-05-18T21:31:56.485Z,13.90
2023-05-18T21:34:29.606Z,13.80
2023-05-18T21:37:02.767Z,13.80
2023-05-18T21:39:36.356Z,13.70
2023-05-18T21:42:10.406Z,13.70
2023-05-18T21:44:43.495Z,13.70
2023-05-18T21:47:16.686Z,13.70
2023-05-18T21:49:49.619Z,13.60
2023-05-18T21:52:22.739Z,13.50
2023-05-18T21:54:55.945Z,13.50
2023-05-18T21:57:29.132Z,13.40
2023-05-18T22:00:02.494Z,13.30
2023-05-18T22:02:45.457Z,13.30
2023-05-18T22:05:19.052Z,13.20
2023-05-18T22:07:52.328Z,13.20
2023-05-18T22:10:25.165Z,13.20
2023-05-18T22:12:58.472Z,13.10
2023-05-18T22:15:33.032Z,13.10
2023-05-18T22:18:06.497Z,13.10
2023-05-18T22:20:39.637Z,13.00
2023-05-18T22:23:12.691Z,13.10
2023-05-18T22:25:46.500Z,13.00
2023-05-18T22:28:23.067Z,13.00
2023-05-18T22:30:55.962Z,13.00
2023-05-18T22:33:29.036Z,13.00
2023-05-18T22:36:01.881Z,12.90
2023-05-18T22:38:35.840Z,12.90
2023-05-18T22:41:08.843Z,12.90
2023-05-18T22:43:41.773Z,12.90
2023-05-18T22:46:15.115Z,12.80
2023-05-18T22:48:48.362Z,12.80
2023-05-18T22:51:23.628Z,12.80
2023-05-18T22:53:56.714Z,12.70
2023-05-18T22:56:29.924Z,12.70
2023-05-18T22:59:03.093Z,12.70
2023-05-18T23:01:37.691Z,12.60
2023-05-18T23:04:13.183Z,12.50
2023-05-18T23:06:49.644Z,12.40
2023-05-18T23:09:23.441Z,12.40
2023-05-18T23:11:56.436Z,12.30
2023-05-18T23:14:31.411Z,12.20
2023-05-18T23:17:04.786Z,12.10
2023-05-18T23:19:39.797Z,12.00
2023-05-18T23:22:12.664Z,11.90
2023-05-18T23:24:45.881Z,11.80
2023-05-18T23:27:19.470Z,11.70
2023-05-18T23:29:53.407Z,11.50
2023-05-18T23:32:26.720Z,11.40
2023-05-18T23:35:00.204Z,11.40
2023-05-18T23:37:33.182Z,11.30
2023-05-18T23:40:14.296Z,11.20
2023-05-18T23:42:47.297Z,11.20
2023-05-18T23:45:20.525Z,11.10
2023-05-18T23:47:56.064Z,11.10
2023-05-18T23:50:29.781Z,11.00
2023-05-18T23:53:04.409Z,10.80
2023-05-18T23:55:40.200Z,10.70
2023-05-18T23:58:14.210Z,10.60
